Time;durP1;ratioP1;P1;durP2;ratioP2;P2;SDS_P1;SDS_P2;PMS_P1;PMS_P2;Temp;Humidity;BMP_temperature;BMP_pressure;BME280_temperature;BME280_humidity;BME280_pressure;Samples;Min_cycle;Max_cycle;Signal;HPM_P1;HPM_P2
2021/08/04 00:01:07;;;;;;;2.23;2.00;;;13.30;99.90;;;;;;5023947;28;20245;-83
2021/08/04 00:03:32;;;;;;;2.83;2.03;;;13.40;99.90;;;;;;5019643;28;20609;-83
2021/08/04 00:05:58;;;;;;;2.67;1.90;;;13.30;99.90;;;;;;5021845;28;20221;-83
2021/08/04 00:08:24;;;;;;;2.80;2.40;;;13.30;99.90;;;;;;5021085;28;20531;-82
2021/08/04 00:10:49;;;;;;;2.93;2.30;;;13.30;99.90;;;;;;5021294;28;20210;-83
2021/08/04 00:13:15;;;;;;;3.37;2.20;;;13.30;99.90;;;;;;5021904;28;20200;-83
2021/08/04 00:15:41;;;;;;;2.67;2.00;;;13.20;99.90;;;;;;5021460;28;20217;-83
2021/08/04 00:18:07;;;;;;;2.80;2.37;;;13.20;99.90;;;;;;5021436;28;20213;-83
2021/08/04 00:20:33;;;;;;;3.53;2.33;;;13.30;99.90;;;;;;5021890;28;20177;-83
2021/08/04 00:22:58;;;;;;;2.83;2.20;;;13.30;99.90;;;;;;5024523;28;20194;-83
2021/08/04 00:25:24;;;;;;;2.87;2.37;;;13.20;99.90;;;;;;5025596;28;20222;-83
2021/08/04 00:27:50;;;;;;;3.97;2.77;;;13.20;99.90;;;;;;5029731;28;20246;-80
2021/08/04 00:30:15;;;;;;;4.13;2.30;;;13.20;99.90;;;;;;5029797;28;20189;-81
2021/08/04 00:32:41;;;;;;;2.73;2.23;;;13.10;99.90;;;;;;5027144;28;20171;-81
2021/08/04 00:35:07;;;;;;;3.63;2.17;;;13.10;99.90;;;;;;5023753;28;20198;-81
2021/08/04 00:37:33;;;;;;;2.97;2.00;;;13.10;99.90;;;;;;5024494;28;20206;-81
2021/08/04 00:39:59;;;;;;;3.40;2.43;;;13.10;99.90;;;;;;5024696;28;20775;-81
2021/08/04 00:42:24;;;;;;;3.73;2.53;;;13.10;99.90;;;;;;5025471;28;20582;-81
2021/08/04 00:44:50;;;;;;;2.60;2.00;;;13.10;99.90;;;;;;5030344;28;20214;-81
2021/08/04 00:47:19;;;;;;;5.07;2.80;;;13.10;99.90;;;;;;5019759;28;20178;-81
2021/08/04 00:49:45;;;;;;;2.57;2.03;;;13.10;99.90;;;;;;5020407;28;20254;-81
2021/08/04 00:52:11;;;;;;;2.70;2.37;;;13.10;99.90;;;;;;5020785;28;20624;-81
2021/08/04 00:54:37;;;;;;;4.27;2.40;;;13.10;99.90;;;;;;5021918;28;20700;-81
2021/08/04 00:57:03;;;;;;;3.23;2.10;;;13.10;99.90;;;;;;5021865;28;20175;-80
2021/08/04 00:59:29;;;;;;;4.33;2.33;;;13.00;99.90;;;;;;5021640;28;20292;-81
2021/08/04 01:02:09;;;;;;;2.63;2.17;;;13.00;99.90;;;;;;5020338;28;20198;-81
2021/08/04 01:04:50;;;;;;;2.87;2.50;;;13.00;99.90;;;;;;5018447;28;20252;-81
2021/08/04 01:07:33;;;;;;;4.53;2.30;;;13.00;99.90;;;;;;5021105;28;20169;-81
2021/08/04 01:10:07;;;;;;;3.43;2.50;;;13.00;99.90;;;;;;5020982;28;20170;-81
2021/08/04 01:12:45;;;;;;;3.00;2.53;;;12.90;99.90;;;;;;5021330;28;20170;-80
2021/08/04 01:15:12;;;;;;;3.33;2.10;;;12.90;99.90;;;;;;5019148;28;20201;-81
2021/08/04 01:17:44;;;;;;;3.30;2.73;;;12.90;99.90;;;;;;5019807;28;20207;-81
2021/08/04 01:20:18;;;;;;;4.60;2.23;;;12.90;99.90;;;;;;5021596;28;20194;-80
2021/08/04 01:23:22;;;;;;;2.30;1.90;;;12.90;99.90;;;;;;5021967;28;20214;-80
2021/08/04 01:26:23;;;;;;;2.40;2.00;;;12.90;99.90;;;;;;5020254;28;20686;-80
2021/08/04 01:28:52;;;;;;;3.30;2.70;;;12.90;99.90;;;;;;5021959;28;20170;-81
2021/08/04 01:31:24;;;;;;;3.27;2.43;;;12.90;99.90;;;;;;5022147;28;20182;-80
2021/08/04 01:33:50;;;;;;;3.70;2.73;;;12.90;99.90;;;;;;5019825;28;20210;-80
2021/08/04 01:36:16;;;;;;;3.43;2.50;;;12.90;99.90;;;;;;5022220;28;20191;-81
2021/08/04 01:38:43;;;;;;;3.20;2.40;;;12.90;99.90;;;;;;5019616;28;20210;-80
2021/08/04 01:41:11;;;;;;;6.17;2.50;;;12.90;99.90;;;;;;5021098;28;20190;-81
2021/08/04 01:43:38;;;;;;;4.00;2.40;;;12.90;99.90;;;;;;5022102;28;20182;-81
2021/08/04 01:46:06;;;;;;;3.10;2.30;;;12.90;99.90;;;;;;5021828;28;20630;-81
2021/08/04 01:48:32;;;;;;;3.80;2.50;;;12.90;99.90;;;;;;5022490;28;20578;-81
2021/08/04 01:51:01;;;;;;;4.00;2.70;;;12.90;99.90;;;;;;5022048;28;20175;-81
2021/08/04 01:53:29;;;;;;;2.93;2.40;;;12.80;99.90;;;;;;5022290;28;20174;-81
2021/08/04 01:55:54;;;;;;;3.93;2.63;;;12.80;99.90;;;;;;5020902;28;20228;-81
2021/08/04 01:58:20;;;;;;;3.13;2.40;;;12.80;99.90;;;;;;5021205;28;20876;-81
2021/08/04 02:00:46;;;;;;;4.07;2.63;;;12.80;99.90;;;;;;5020980;28;20229;-81
2021/08/04 02:03:12;;;;;;;5.87;2.70;;;12.90;99.90;;;;;;5021394;28;20560;-81
2021/08/04 02:05:38;;;;;;;2.97;2.23;;;12.80;99.90;;;;;;5022865;28;20195;-81
2021/08/04 02:08:21;;;;;;;3.20;2.20;;;12.80;99.90;;;;;;5022122;28;20644;-81
2021/08/04 02:11:09;;;;;;;3.33;2.37;;;12.80;99.90;;;;;;5022487;28;20196;-81
2021/08/04 02:14:05;;;;;;;2.80;2.30;;;12.80;99.90;;;;;;5021974;28;20233;-81
2021/08/04 02:16:33;;;;;;;3.43;2.50;;;12.80;99.90;;;;;;5022476;28;20663;-81
2021/08/04 02:19:11;;;;;;;3.50;2.20;;;12.80;99.90;;;;;;5023429;28;20204;-81
2021/08/04 02:21:39;;;;;;;3.37;2.30;;;12.80;99.90;;;;;;5023540;28;20174;-81
2021/08/04 02:24:05;;;;;;;3.27;2.50;;;12.80;99.90;;;;;;5022490;28;20175;-81
2021/08/04 02:26:34;;;;;;;2.67;2.10;;;12.80;99.90;;;;;;5025060;28;20171;-80
2021/08/04 02:29:02;;;;;;;2.73;2.10;;;12.80;99.90;;;;;;5023082;28;20199;-80
2021/08/04 02:31:28;;;;;;;3.20;2.30;;;12.80;99.90;;;;;;5020902;28;20182;-81
2021/08/04 02:33:55;;;;;;;4.60;2.40;;;12.80;99.90;;;;;;5020915;28;20183;-81
2021/08/04 02:36:21;;;;;;;2.67;2.20;;;12.80;99.90;;;;;;5022364;28;20195;-81
2021/08/04 02:38:47;;;;;;;3.30;2.20;;;12.80;99.90;;;;;;5021952;28;20206;-81
2021/08/04 02:41:13;;;;;;;2.87;2.00;;;12.90;99.90;;;;;;5022016;28;20637;-81
2021/08/04 02:43:39;;;;;;;2.20;1.97;;;12.80;99.90;;;;;;5023058;28;20167;-81
2021/08/04 02:46:05;;;;;;;2.53;1.70;;;12.90;99.90;;;;;;5022236;28;20579;-81
2021/08/04 02:48:33;;;;;;;2.20;1.70;;;12.80;99.90;;;;;;5022499;28;20186;-81
2021/08/04 02:51:03;;;;;;;2.10;1.80;;;12.80;99.90;;;;;;5024532;28;20175;-81
2021/08/04 02:53:30;;;;;;;4.23;2.20;;;12.90;99.90;;;;;;5026613;28;20197;-81
2021/08/04 02:55:56;;;;;;;2.70;1.80;;;12.90;99.90;;;;;;5034099;28;20202;-81
2021/08/04 02:58:22;;;;;;;2.70;1.90;;;12.90;99.90;;;;;;5031721;28;20199;-81
2021/08/04 03:00:48;;;;;;;2.23;1.70;;;12.90;99.90;;;;;;5028883;28;20251;-81
2021/08/04 03:03:14;;;;;;;2.00;1.63;;;12.80;99.90;;;;;;5020942;28;20646;-81
2021/08/04 03:05:40;;;;;;;2.60;1.77;;;12.90;99.90;;;;;;5021606;28;20222;-81
2021/08/04 03:08:05;;;;;;;2.40;1.83;;;12.90;99.90;;;;;;5020852;28;20182;-81
2021/08/04 03:10:31;;;;;;;1.87;1.57;;;12.90;99.90;;;;;;5024548;28;20241;-81
2021/08/04 03:12:57;;;;;;;3.33;1.80;;;12.90;99.90;;;;;;5025348;28;20193;-80
2021/08/04 03:15:23;;;;;;;1.63;1.53;;;12.90;99.90;;;;;;5026431;28;20241;-81
2021/08/04 03:17:48;;;;;;;1.90;1.57;;;12.90;99.90;;;;;;5028498;28;20206;-81
2021/08/04 03:20:15;;;;;;;2.33;1.77;;;12.90;99.90;;;;;;5025005;28;20182;-81
2021/08/04 03:22:49;;;;;;;2.90;1.70;;;12.90;99.90;;;;;;5024360;28;20175;-81
2021/08/04 03:25:16;;;;;;;4.03;1.77;;;12.90;99.90;;;;;;5025766;28;20259;-81
2021/08/04 03:27:42;;;;;;;2.50;1.77;;;12.90;99.90;;;;;;5026245;28;20552;-81
2021/08/04 03:30:09;;;;;;;3.03;1.67;;;12.90;99.90;;;;;;5026835;28;20178;-81
2021/08/04 03:32:37;;;;;;;2.20;1.50;;;12.90;99.90;;;;;;5027515;28;20185;-81
2021/08/04 03:35:04;;;;;;;2.00;1.50;;;12.90;99.90;;;;;;5028502;28;20198;-81
2021/08/04 03:37:30;;;;;;;3.13;1.63;;;12.90;99.90;;;;;;5028400;28;20582;-81
2021/08/04 03:39:55;;;;;;;2.73;1.80;;;12.90;99.90;;;;;;5029288;28;20206;-81
2021/08/04 03:42:21;;;;;;;2.00;1.67;;;12.90;99.90;;;;;;5027533;28;20629;-81
2021/08/04 03:44:47;;;;;;;1.93;1.60;;;12.90;99.90;;;;;;5026375;28;20214;-81
2021/08/04 03:47:12;;;;;;;2.33;1.80;;;12.90;99.90;;;;;;5027235;28;20182;-81
2021/08/04 03:49:38;;;;;;;4.57;2.97;;;12.90;99.90;;;;;;5026840;28;20190;-81
2021/08/04 03:52:04;;;;;;;2.17;1.43;;;12.80;99.90;;;;;;5027255;28;20189;-81
2021/08/04 03:54:30;;;;;;;2.00;1.80;;;12.80;99.90;;;;;;5027526;28;20199;-81
2021/08/04 03:56:55;;;;;;;1.50;1.20;;;12.80;99.90;;;;;;5024009;28;20175;-81
2021/08/04 03:59:21;;;;;;;2.10;1.33;;;12.80;99.90;;;;;;5022532;28;20207;-81
2021/08/04 04:01:46;;;;;;;2.30;1.60;;;12.90;99.90;;;;;;5024224;28;20558;-81
2021/08/04 04:04:12;;;;;;;3.87;1.70;;;12.90;99.90;;;;;;5024501;28;20240;-81
2021/08/04 04:06:38;;;;;;;2.33;1.53;;;13.00;99.90;;;;;;5024088;28;20555;-81
2021/08/04 04:09:03;;;;;;;2.37;1.77;;;13.00;99.90;;;;;;5022708;28;20183;-81
2021/08/04 04:11:29;;;;;;;3.77;1.87;;;13.00;99.90;;;;;;5025256;28;20190;-81
2021/08/04 04:13:55;;;;;;;1.90;1.57;;;13.00;99.90;;;;;;5022758;28;20186;-81
2021/08/04 04:16:22;;;;;;;3.70;1.60;;;13.00;99.90;;;;;;5028229;28;20224;-81
2021/08/04 04:18:48;;;;;;;2.30;1.87;;;13.00;99.90;;;;;;5019423;28;20685;-81
2021/08/04 04:21:15;;;;;;;1.80;1.67;;;13.00;99.90;;;;;;5020459;28;20175;-81
2021/08/04 04:23:41;;;;;;;1.73;1.27;;;13.00;99.90;;;;;;5020321;28;20182;-81
2021/08/04 04:26:06;;;;;;;1.60;1.20;;;12.90;99.90;;;;;;5020947;28;20199;-81
2021/08/04 04:28:32;;;;;;;1.80;1.53;;;12.80;99.90;;;;;;5021816;28;20175;-83
2021/08/04 04:30:57;;;;;;;1.60;1.43;;;12.80;99.90;;;;;;5019324;28;20641;-84
2021/08/04 04:33:23;;;;;;;1.80;1.43;;;12.80;99.90;;;;;;5020795;28;20178;-81
2021/08/04 04:35:49;;;;;;;2.00;1.43;;;12.80;99.90;;;;;;5020749;28;20191;-81
2021/08/04 04:38:15;;;;;;;2.50;1.40;;;12.90;99.90;;;;;;5020672;28;20207;-81
2021/08/04 04:40:41;;;;;;;2.00;1.50;;;12.90;99.90;;;;;;5020160;28;20213;-81
2021/08/04 04:43:06;;;;;;;2.30;1.50;;;12.90;99.90;;;;;;5021484;28;20182;-81
2021/08/04 04:45:32;;;;;;;2.10;1.57;;;12.90;99.90;;;;;;5020051;28;20211;-81
2021/08/04 04:47:57;;;;;;;3.03;1.93;;;12.90;99.90;;;;;;5022163;28;20220;-81
2021/08/04 04:50:23;;;;;;;2.00;1.70;;;13.00;99.90;;;;;;5021178;28;20206;-81
2021/08/04 04:52:49;;;;;;;1.77;1.50;;;12.90;99.90;;;;;;5020841;28;20178;-81
2021/08/04 04:55:15;;;;;;;3.10;2.03;;;13.00;99.90;;;;;;5020069;28;20293;-81
2021/08/04 04:57:41;;;;;;;2.87;1.70;;;13.00;99.90;;;;;;5022460;28;20206;-81
2021/08/04 05:00:10;;;;;;;2.17;1.37;;;13.00;99.90;;;;;;5022407;28;20198;-81
2021/08/04 05:02:40;;;;;;;1.77;1.50;;;13.00;99.90;;;;;;5021274;28;20178;-81
2021/08/04 05:05:07;;;;;;;2.40;1.50;;;12.90;99.90;;;;;;5021748;28;20243;-82
2021/08/04 05:07:33;;;;;;;1.77;1.40;;;13.00;99.90;;;;;;5022003;28;20182;-80
2021/08/04 05:09:59;;;;;;;2.30;1.47;;;13.00;99.90;;;;;;5019942;28;20179;-82
2021/08/04 05:12:25;;;;;;;3.03;1.50;;;13.00;99.90;;;;;;5019016;28;20541;-81
2021/08/04 05:14:50;;;;;;;2.97;1.63;;;13.00;99.90;;;;;;5020346;28;20384;-81
2021/08/04 05:17:16;;;;;;;2.27;1.37;;;13.00;99.90;;;;;;5020002;28;20269;-81
2021/08/04 05:19:42;;;;;;;2.47;1.30;;;13.00;99.90;;;;;;5022141;28;20167;-81
2021/08/04 05:22:08;;;;;;;3.30;1.33;;;13.10;99.90;;;;;;5022582;28;20170;-82
2021/08/04 05:24:34;;;;;;;1.57;1.33;;;13.10;99.90;;;;;;5020781;28;20195;-81
2021/08/04 05:27:00;;;;;;;1.60;1.33;;;13.10;99.90;;;;;;5019442;28;20659;-82
2021/08/04 05:29:25;;;;;;;2.37;1.60;;;13.10;99.90;;;;;;5021658;28;20186;-82
2021/08/04 05:31:51;;;;;;;3.70;1.60;;;13.20;99.90;;;;;;5020692;28;20183;-81
2021/08/04 05:34:17;;;;;;;2.27;1.50;;;13.30;99.90;;;;;;5018658;28;20192;-81
2021/08/04 05:36:43;;;;;;;1.90;1.37;;;13.30;99.90;;;;;;5022352;28;20171;-82
2021/08/04 05:39:09;;;;;;;3.57;1.50;;;13.30;99.90;;;;;;5022243;28;20202;-82
2021/08/04 05:41:35;;;;;;;3.37;1.47;;;13.40;99.90;;;;;;5021777;28;20250;-81
2021/08/04 05:44:01;;;;;;;1.83;1.40;;;13.40;99.90;;;;;;5021410;28;20174;-81
2021/08/04 05:46:26;;;;;;;3.63;1.60;;;13.40;99.90;;;;;;5020494;28;20205;-81
2021/08/04 05:48:52;;;;;;;2.27;1.40;;;13.40;99.90;;;;;;5020482;28;20218;-81
2021/08/04 05:51:18;;;;;;;1.87;1.20;;;13.40;99.90;;;;;;5020850;28;20214;-81
2021/08/04 05:53:44;;;;;;;2.00;1.37;;;13.40;99.90;;;;;;5020570;28;20182;-81
2021/08/04 05:56:09;;;;;;;1.70;1.30;;;13.40;99.90;;;;;;5021183;28;20202;-81
2021/08/04 05:58:35;;;;;;;1.87;1.23;;;13.40;99.90;;;;;;5016857;28;20209;-81
2021/08/04 06:01:00;;;;;;;2.13;1.40;;;13.40;99.90;;;;;;5019359;28;20182;-80
2021/08/04 06:03:26;;;;;;;1.47;1.27;;;13.40;99.90;;;;;;5024128;28;20178;-81
2021/08/04 06:05:52;;;;;;;2.23;1.50;;;13.40;99.90;;;;;;5018811;28;20194;-81
2021/08/04 06:08:17;;;;;;;3.67;1.60;;;13.40;99.90;;;;;;5018365;28;20513;-81
2021/08/04 06:10:43;;;;;;;5.07;1.87;;;13.50;99.90;;;;;;5023365;28;20183;-81
2021/08/04 06:13:09;;;;;;;1.93;1.37;;;13.50;99.90;;;;;;5026126;28;20198;-83
2021/08/04 06:15:34;;;;;;;2.17;1.30;;;13.50;99.90;;;;;;5025260;28;20683;-81
2021/08/04 06:18:00;;;;;;;1.60;1.30;;;13.50;99.90;;;;;;5026461;28;20547;-81
2021/08/04 06:20:26;;;;;;;3.87;1.70;;;13.50;99.90;;;;;;5024355;28;20171;-81
2021/08/04 06:22:51;;;;;;;2.40;1.60;;;13.60;99.90;;;;;;5024700;28;20179;-81
2021/08/04 06:25:17;;;;;;;1.50;1.40;;;13.60;99.90;;;;;;5026038;28;20191;-81
2021/08/04 06:27:43;;;;;;;2.80;1.80;;;13.60;99.90;;;;;;5026097;28;20237;-81
2021/08/04 06:30:08;;;;;;;1.93;1.57;;;13.60;99.90;;;;;;5029232;28;20187;-81
2021/08/04 06:32:34;;;;;;;1.50;1.40;;;13.60;99.90;;;;;;5028483;28;20185;-81
2021/08/04 06:35:00;;;;;;;1.67;1.27;;;13.70;99.90;;;;;;5028325;28;20266;-81
2021/08/04 06:37:25;;;;;;;2.27;1.67;;;13.70;99.90;;;;;;5028877;28;20232;-81
2021/08/04 06:39:51;;;;;;;3.10;1.57;;;13.70;99.90;;;;;;5031445;28;20182;-81
2021/08/04 06:42:18;;;;;;;2.77;1.73;;;13.70;99.90;;;;;;5035073;28;20186;-80
2021/08/04 06:44:43;;;;;;;1.80;1.60;;;13.80;99.90;;;;;;5039672;28;20210;-81
2021/08/04 06:47:09;;;;;;;2.60;1.80;;;13.80;99.90;;;;;;5040267;28;20205;-81
2021/08/04 06:49:35;;;;;;;1.87;1.57;;;13.90;99.90;;;;;;5029176;28;20179;-81
2021/08/04 06:52:00;;;;;;;2.87;1.37;;;13.90;99.90;;;;;;5028293;28;20187;-82
2021/08/04 06:54:26;;;;;;;2.03;1.23;;;13.90;99.90;;;;;;5027687;28;20268;-82
2021/08/04 06:56:52;;;;;;;3.60;1.50;;;14.00;99.90;;;;;;5026527;28;20202;-82
2021/08/04 06:59:18;;;;;;;2.60;1.60;;;14.00;99.90;;;;;;5026058;28;20210;-82
2021/08/04 07:01:45;;;;;;;2.30;1.33;;;14.10;99.90;;;;;;5026774;28;20171;-82
2021/08/04 07:04:11;;;;;;;2.63;1.67;;;14.10;99.90;;;;;;5025836;28;20179;-82
2021/08/04 07:06:37;;;;;;;1.83;1.30;;;14.10;99.90;;;;;;5025774;28;20262;-82
2021/08/04 07:09:03;;;;;;;1.60;1.30;;;14.20;99.90;;;;;;5027672;28;20179;-82
2021/08/04 07:11:29;;;;;;;1.63;1.33;;;14.20;99.90;;;;;;5027791;28;20257;-83
2021/08/04 07:14:00;;;;;;;1.53;1.30;;;14.30;99.90;;;;;;5026615;28;20179;-83
2021/08/04 07:16:25;;;;;;;1.63;1.40;;;14.30;99.90;;;;;;5027093;28;20198;-82
2021/08/04 07:18:51;;;;;;;2.17;1.30;;;14.50;99.90;;;;;;5028092;28;20213;-83
2021/08/04 07:21:17;;;;;;;2.87;1.53;;;14.50;99.90;;;;;;5026000;28;20266;-83
2021/08/04 07:23:46;;;;;;;2.20;1.50;;;14.60;99.90;;;;;;5026460;28;20221;-83
2021/08/04 07:26:13;;;;;;;1.40;1.30;;;14.70;99.90;;;;;;5025821;28;20237;-83
2021/08/04 07:28:38;;;;;;;2.90;1.87;;;14.80;99.90;;;;;;5027568;28;20210;-83
2021/08/04 07:31:07;;;;;;;2.13;1.33;;;14.90;99.90;;;;;;5027907;28;20175;-82
2021/08/04 07:33:32;;;;;;;3.17;1.47;;;15.00;99.90;;;;;;5026128;28;20203;-83
2021/08/04 07:35:58;;;;;;;1.60;1.47;;;15.10;99.90;;;;;;5026766;28;20228;-83
2021/08/04 07:38:24;;;;;;;2.10;1.70;;;15.10;99.90;;;;;;5025981;28;20230;-83
2021/08/04 07:40:49;;;;;;;2.07;1.40;;;15.20;99.90;;;;;;5024098;28;20595;-81
2021/08/04 07:43:15;;;;;;;1.70;1.50;;;15.20;99.90;;;;;;5024064;28;20179;-81
2021/08/04 07:45:40;;;;;;;5.23;1.60;;;15.20;99.90;;;;;;5025365;28;20215;-81
2021/08/04 07:48:06;;;;;;;1.33;1.20;;;15.10;99.90;;;;;;5024913;28;20183;-82
2021/08/04 07:50:32;;;;;;;2.03;1.47;;;15.10;99.90;;;;;;5023764;28;20608;-82
2021/08/04 07:52:57;;;;;;;1.40;1.30;;;15.20;99.90;;;;;;5025769;28;20664;-82
2021/08/04 07:55:23;;;;;;;1.87;1.20;;;15.20;99.90;;;;;;5025305;28;20199;-82
2021/08/04 07:57:49;;;;;;;1.63;1.30;;;15.30;99.90;;;;;;5024379;28;20207;-82
2021/08/04 08:00:15;;;;;;;1.50;1.30;;;15.30;99.90;;;;;;5023883;28;20182;-82
2021/08/04 08:02:41;;;;;;;1.50;1.30;;;15.40;99.90;;;;;;5024183;28;20305;-82
2021/08/04 08:05:07;;;;;;;1.47;0.87;;;15.50;99.90;;;;;;5022157;28;20237;-82
2021/08/04 08:07:33;;;;;;;1.73;1.20;;;15.40;99.90;;;;;;5023070;28;20655;-82
2021/08/04 08:09:58;;;;;;;1.53;0.80;;;15.40;99.90;;;;;;5024595;28;20175;-82
2021/08/04 08:12:26;;;;;;;1.10;0.83;;;15.30;99.90;;;;;;5022543;28;20185;-82
2021/08/04 08:14:52;;;;;;;1.50;1.10;;;15.30;99.90;;;;;;5022376;28;20198;-82
2021/08/04 08:17:18;;;;;;;1.30;1.10;;;15.20;99.90;;;;;;5022292;28;20222;-82
2021/08/04 08:19:43;;;;;;;1.27;0.93;;;15.20;99.90;;;;;;5020388;28;20178;-82
2021/08/04 08:22:09;;;;;;;1.13;1.00;;;15.20;99.90;;;;;;5017653;28;20184;-82
2021/08/04 08:24:35;;;;;;;1.00;0.90;;;15.20;99.90;;;;;;5020402;28;20205;-83
2021/08/04 08:27:01;;;;;;;1.10;1.00;;;15.20;99.90;;;;;;5022629;28;20555;-82
2021/08/04 08:29:26;;;;;;;1.20;1.10;;;15.20;99.90;;;;;;5024089;28;20191;-82
2021/08/04 08:31:52;;;;;;;3.47;1.37;;;15.30;99.90;;;;;;5023769;28;20250;-82
2021/08/04 08:34:18;;;;;;;1.50;1.13;;;15.60;99.90;;;;;;5020954;28;20175;-82
2021/08/04 08:36:43;;;;;;;3.70;1.40;;;15.50;99.90;;;;;;5019839;28;20203;-82
2021/08/04 08:39:09;;;;;;;2.33;1.10;;;15.60;99.90;;;;;;5019955;28;20210;-82
2021/08/04 08:41:36;;;;;;;1.90;1.13;;;15.70;99.90;;;;;;5020294;28;20182;-82
2021/08/04 08:44:02;;;;;;;1.00;0.90;;;15.80;99.90;;;;;;5020136;28;20175;-83
2021/08/04 08:46:30;;;;;;;1.43;1.00;;;15.80;99.90;;;;;;5020966;28;20179;-83
2021/08/04 08:48:56;;;;;;;1.80;1.30;;;15.80;99.90;;;;;;5022746;28;20186;-82
2021/08/04 08:51:22;;;;;;;3.53;1.60;;;15.80;99.90;;;;;;5020428;28;20542;-82
2021/08/04 08:53:49;;;;;;;1.90;1.07;;;15.90;99.90;;;;;;5025935;28;20179;-82
2021/08/04 08:56:18;;;;;;;1.50;1.10;;;16.00;99.90;;;;;;5029117;28;20190;-82
2021/08/04 08:58:48;;;;;;;1.80;1.50;;;16.00;99.90;;;;;;5033550;28;20286;-82
2021/08/04 09:01:14;;;;;;;4.37;1.20;;;16.00;99.90;;;;;;5025438;28;20193;-82
2021/08/04 09:03:40;;;;;;;2.40;1.43;;;16.10;99.90;;;;;;5022113;28;20206;-82
2021/08/04 09:06:05;;;;;;;1.43;1.03;;;16.20;99.90;;;;;;5022213;28;20191;-82
2021/08/04 09:08:33;;;;;;;1.20;1.10;;;16.30;99.90;;;;;;5020469;28;20266;-82
2021/08/04 09:11:20;;;;;;;1.50;1.17;;;16.40;99.90;;;;;;5020862;28;20185;-82
2021/08/04 09:13:47;;;;;;;1.77;1.20;;;16.50;99.90;;;;;;5022162;28;20525;-83
2021/08/04 09:16:15;;;;;;;3.27;1.20;;;16.60;99.90;;;;;;5020394;28;20221;-83
2021/08/04 09:18:51;;;;;;;2.30;1.63;;;16.70;99.90;;;;;;5023842;28;20206;-83
2021/08/04 09:21:18;;;;;;;1.90;1.13;;;16.80;99.90;;;;;;5024149;28;20199;-83
2021/08/04 09:24:02;;;;;;;1.93;1.30;;;16.90;99.90;;;;;;5023044;28;20178;-83
2021/08/04 09:26:28;;;;;;;3.10;1.30;;;17.10;99.90;;;;;;5022789;28;20178;-83
2021/08/04 09:29:09;;;;;;;1.90;1.20;;;17.30;99.90;;;;;;5024153;28;20199;-83
2021/08/04 09:31:41;;;;;;;2.17;1.40;;;17.30;99.90;;;;;;5023001;28;20546;-83
2021/08/04 09:34:35;;;;;;;1.23;1.10;;;17.30;99.90;;;;;;5022633;28;20179;-83
2021/08/04 09:37:16;;;;;;;1.30;1.07;;;17.30;99.90;;;;;;5024054;28;20224;-83
2021/08/04 09:39:44;;;;;;;1.20;1.00;;;17.30;99.90;;;;;;5021798;28;20676;-83
2021/08/04 09:42:12;;;;;;;1.97;1.20;;;17.20;99.90;;;;;;5021007;28;20291;-82
2021/08/04 09:44:55;;;;;;;1.50;1.27;;;17.00;99.90;;;;;;5020699;28;20215;-82
2021/08/04 09:47:21;;;;;;;3.70;1.47;;;17.00;99.90;;;;;;5018944;28;20180;-82
2021/08/04 09:50:13;;;;;;;1.80;1.27;;;17.00;99.90;;;;;;5020167;28;20180;-82
2021/08/04 09:52:51;;;;;;;1.73;1.17;;;17.00;99.90;;;;;;5018493;28;20188;-83
2021/08/04 09:55:19;;;;;;;1.97;1.70;;;16.90;99.90;;;;;;5020789;28;20191;-82
2021/08/04 09:57:47;;;;;;;1.67;1.30;;;16.90;99.90;;;;;;5019801;28;20206;-82
2021/08/04 10:00:15;;;;;;;2.07;1.40;;;16.80;99.90;;;;;;5019963;28;20629;-82
2021/08/04 10:02:41;;;;;;;2.07;1.57;;;16.60;99.90;;;;;;5019467;28;20210;-82
2021/08/04 10:05:26;;;;;;;2.03;1.30;;;16.60;99.90;;;;;;5022706;28;20237;-82
2021/08/04 10:08:10;;;;;;;1.50;1.10;;;16.50;99.90;;;;;;5023674;28;20195;-83
2021/08/04 10:10:42;;;;;;;1.87;1.50;;;16.60;99.90;;;;;;5022968;28;20187;-82
2021/08/04 10:13:12;;;;;;;1.40;1.30;;;16.60;99.90;;;;;;5024454;28;20182;-82
2021/08/04 10:15:43;;;;;;;1.70;1.50;;;16.70;99.90;;;;;;5025597;28;20206;-83
2021/08/04 10:18:21;;;;;;;1.30;1.20;;;16.70;99.90;;;;;;5024435;28;20207;-84
2021/08/04 10:20:51;;;;;;;1.63;1.10;;;16.70;99.90;;;;;;5023548;28;20182;-82
2021/08/04 10:23:18;;;;;;;2.03;1.30;;;16.80;99.90;;;;;;5025092;28;20649;-82
2021/08/04 10:25:45;;;;;;;1.50;1.40;;;16.80;99.90;;;;;;5024847;28;20191;-82
2021/08/04 10:28:12;;;;;;;2.03;1.40;;;16.90;99.90;;;;;;5023716;28;20240;-82
2021/08/04 10:30:39;;;;;;;2.40;1.50;;;16.90;99.90;;;;;;5024204;28;20575;-82
2021/08/04 10:33:05;;;;;;;1.97;1.70;;;16.90;99.90;;;;;;5023750;28;20175;-82
2021/08/04 10:35:37;;;;;;;2.70;1.47;;;16.90;99.90;;;;;;5025599;28;20210;-82
2021/08/04 10:38:07;;;;;;;2.53;1.63;;;16.90;99.90;;;;;;5023817;28;20263;-82
2021/08/04 10:40:33;;;;;;;3.67;1.70;;;17.00;99.90;;;;;;5024784;28;20642;-82
2021/08/04 10:42:59;;;;;;;5.17;2.00;;;17.00;99.90;;;;;;5026125;28;20590;-82
2021/08/04 10:45:27;;;;;;;2.87;1.80;;;17.00;99.90;;;;;;5025341;28;20210;-83
2021/08/04 10:47:59;;;;;;;2.33;1.60;;;17.00;99.90;;;;;;5026917;28;20202;-82
2021/08/04 10:50:26;;;;;;;1.97;1.57;;;17.00;99.90;;;;;;5025754;28;20191;-82
2021/08/04 10:52:58;;;;;;;4.90;1.57;;;17.10;99.90;;;;;;5025411;28;20187;-82
2021/08/04 10:55:25;;;;;;;2.80;1.63;;;17.10;99.90;;;;;;5026264;28;20200;-83
2021/08/04 10:58:06;;;;;;;1.93;1.40;;;17.20;99.90;;;;;;5025335;28;20253;-82
2021/08/04 11:00:34;;;;;;;1.90;1.67;;;17.30;99.90;;;;;;5024507;28;20180;-81
2021/08/04 11:02:59;;;;;;;3.67;1.90;;;17.50;99.90;;;;;;5023694;28;20183;-82
2021/08/04 11:05:45;;;;;;;3.03;1.60;;;17.70;99.90;;;;;;5026384;28;20282;-82
2021/08/04 11:08:18;;;;;;;1.93;1.70;;;18.10;99.90;;;;;;5024934;28;20218;-82
2021/08/04 11:10:45;;;;;;;4.93;1.60;;;18.50;99.90;;;;;;5025698;28;20181;-82
2021/08/04 11:13:11;;;;;;;2.17;1.70;;;18.90;99.90;;;;;;5026856;28;20180;-82
2021/08/04 11:15:37;;;;;;;2.13;1.70;;;19.40;99.90;;;;;;5024165;28;20239;-82
2021/08/04 11:18:09;;;;;;;1.80;1.60;;;19.80;99.90;;;;;;5025203;28;20291;-82
2021/08/04 11:20:38;;;;;;;2.10;1.90;;;20.10;99.90;;;;;;5024237;28;20179;-83
2021/08/04 11:23:05;;;;;;;2.47;1.70;;;20.10;99.90;;;;;;5023299;28;20188;-83
2021/08/04 11:25:44;;;;;;;3.70;1.83;;;20.00;99.90;;;;;;5022149;28;20199;-83
2021/08/04 11:28:12;;;;;;;2.40;1.73;;;19.70;99.90;;;;;;5021440;28;20266;-82
2021/08/04 11:30:44;;;;;;;1.90;1.70;;;19.60;99.90;;;;;;5021517;28;20190;-82
2021/08/04 11:33:21;;;;;;;2.17;1.80;;;19.50;99.90;;;;;;5019743;28;20179;-82
2021/08/04 11:36:02;;;;;;;2.03;1.80;;;19.20;99.90;;;;;;5021941;28;20213;-82
2021/08/04 11:38:46;;;;;;;2.50;1.70;;;18.90;99.90;;;;;;5020789;28;20199;-82
2021/08/04 11:41:16;;;;;;;1.60;1.50;;;18.60;99.90;;;;;;5021260;28;20185;-81
2021/08/04 11:43:42;;;;;;;1.67;1.30;;;18.30;99.90;;;;;;5021825;28;20257;-80
2021/08/04 11:46:08;;;;;;;2.67;1.70;;;18.30;99.90;;;;;;5022560;28;20748;-80
2021/08/04 11:48:50;;;;;;;1.60;1.20;;;18.20;99.90;;;;;;5022180;28;20185;-81
2021/08/04 11:51:16;;;;;;;2.23;1.60;;;18.10;99.90;;;;;;5020625;28;20181;-82
2021/08/04 11:53:45;;;;;;;1.73;1.60;;;18.00;99.90;;;;;;5018971;28;20196;-81
2021/08/04 11:56:10;;;;;;;1.77;1.40;;;18.00;99.90;;;;;;5019759;28;20237;-80
2021/08/04 11:58:36;;;;;;;3.60;1.40;;;17.80;99.90;;;;;;5018415;28;20545;-80
2021/08/04 12:01:19;;;;;;;1.63;1.53;;;17.80;99.90;;;;;;5019140;28;20187;-80
2021/08/04 12:03:45;;;;;;;3.37;1.90;;;17.70;99.90;;;;;;5018685;28;20572;-80
2021/08/04 12:06:18;;;;;;;2.17;1.80;;;17.60;99.90;;;;;;5018859;28;20245;-80
2021/08/04 12:08:44;;;;;;;2.37;1.80;;;17.60;99.90;;;;;;5018922;28;20176;-81
2021/08/04 12:11:10;;;;;;;3.77;2.43;;;17.50;99.90;;;;;;5018001;28;20304;-81
2021/08/04 12:13:36;;;;;;;2.90;1.33;;;17.50;99.90;;;;;;5020546;28;20186;-81
2021/08/04 12:16:03;;;;;;;2.30;1.50;;;17.50;99.90;;;;;;5022353;28;20283;-80
2021/08/04 12:18:29;;;;;;;1.83;1.50;;;17.40;99.90;;;;;;5020266;28;20235;-80
2021/08/04 12:20:55;;;;;;;2.90;1.80;;;17.40;99.90;;;;;;5021856;28;20185;-81
2021/08/04 12:23:23;;;;;;;3.47;1.60;;;17.40;99.90;;;;;;5020326;28;20178;-81
2021/08/04 12:25:58;;;;;;;2.10;1.57;;;17.40;99.90;;;;;;5018893;28;20233;-81
2021/08/04 12:28:31;;;;;;;3.57;1.70;;;17.40;99.90;;;;;;5021972;28;20610;-81
2021/08/04 12:30:57;;;;;;;1.53;1.30;;;17.40;99.90;;;;;;5022600;28;20204;-81
2021/08/04 12:33:27;;;;;;;2.73;1.50;;;17.40;99.90;;;;;;5020643;28;20185;-81
2021/08/04 12:38:48;;;;;;;1.90;1.67;;;17.40;99.90;;;;;;5019720;28;20626;-80
2021/08/04 12:41:20;;;;;;;2.60;1.60;;;17.40;99.90;;;;;;5018078;28;20206;-81
2021/08/04 12:43:47;;;;;;;3.10;1.87;;;17.40;99.90;;;;;;5017441;28;20552;-81
2021/08/04 12:46:13;;;;;;;2.77;1.90;;;17.40;99.90;;;;;;5018351;28;20231;-80
2021/08/04 12:48:46;;;;;;;2.50;1.80;;;17.40;99.90;;;;;;5016999;28;20648;-81
2021/08/04 12:51:14;;;;;;;1.90;1.70;;;17.40;99.90;;;;;;5020327;28;20638;-80
2021/08/04 12:53:41;;;;;;;3.10;1.80;;;17.40;99.90;;;;;;5020313;28;20661;-80
2021/08/04 12:56:09;;;;;;;3.07;1.93;;;17.30;99.90;;;;;;5019233;28;20213;-81